sensor_id;sensor_type;location;lat;lon;timestamp;temperature;humidity
5154;DHT22;2595;53.584;10.084;2023-03-18T00:01:12;12.20;99.90
5154;DHT22;2595;53.584;10.084;2023-03-18T00:03:38;12.10;99.90
5154;DHT22;2595;53.584;10.084;2023-03-18T00:06:05;12.10;99.90
5154;DHT22;2595;53.584;10.084;2023-03-18T00:08:31;12.10;99.90
5154;DHT22;2595;53.584;10.084;2023-03-18T00:10:57;12.00;99.90
5154;DHT22;2595;53.584;10.084;2023-03-18T00:13:24;12.00;99.90
5154;DHT22;2595;53.584;10.084;2023-03-18T00:15:51;12.00;99.90
5154;DHT22;2595;53.584;10.084;2023-03-18T00:18:17;12.00;99.90
5154;DHT22;2595;53.584;10.084;2023-03-18T00:20:43;12.00;99.90
5154;DHT22;2595;53.584;10.084;2023-03-18T00:23:10;12.00;99.90
5154;DHT22;2595;53.584;10.084;2023-03-18T00:25:36;12.00;99.90
5154;DHT22;2595;53.584;10.084;2023-03-18T00:28:04;12.00;99.90
5154;DHT22;2595;53.584;10.084;2023-03-18T00:30:31;11.90;99.90
5154;DHT22;2595;53.584;10.084;2023-03-18T00:32:57;11.90;99.90
5154;DHT22;2595;53.584;10.084;2023-03-18T00:35:24;12.00;99.90
5154;DHT22;2595;53.584;10.084;2023-03-18T00:37:52;11.90;99.90
5154;DHT22;2595;53.584;10.084;2023-03-18T00:40:19;11.90;99.90
5154;DHT22;2595;53.584;10.084;2023-03-18T00:42:45;11.90;99.90
5154;DHT22;2595;53.584;10.084;2023-03-18T00:45:22;11.90;99.90
5154;DHT22;2595;53.584;10.084;2023-03-18T00:47:49;11.90;99.90
5154;DHT22;2595;53.584;10.084;2023-03-18T00:50:15;11.90;99.90
5154;DHT22;2595;53.584;10.084;2023-03-18T00:52:41;11.90;99.90
5154;DHT22;2595;53.584;10.084;2023-03-18T00:55:08;11.90;99.90
5154;DHT22;2595;53.584;10.084;2023-03-18T00:57:35;11.90;99.90
5154;DHT22;2595;53.584;10.084;2023-03-18T01:00:01;11.90;99.90
5154;DHT22;2595;53.584;10.084;2023-03-18T01:02:27;11.90;99.90
5154;DHT22;2595;53.584;10.084;2023-03-18T01:04:54;11.80;99.90
5154;DHT22;2595;53.584;10.084;2023-03-18T01:07:21;11.80;99.90
5154;DHT22;2595;53.584;10.084;2023-03-18T01:09:48;11.80;99.90
5154;DHT22;2595;53.584;10.084;2023-03-18T01:12:14;11.70;99.90
5154;DHT22;2595;53.584;10.084;2023-03-18T01:14:39;11.70;99.90
5154;DHT22;2595;53.584;10.084;2023-03-18T01:17:06;11.70;99.90
5154;DHT22;2595;53.584;10.084;2023-03-18T01:19:32;11.70;99.90
5154;DHT22;2595;53.584;10.084;2023-03-18T01:21:58;11.70;99.90
5154;DHT22;2595;53.584;10.084;2023-03-18T01:24:24;11.70;99.90
5154;DHT22;2595;53.584;10.084;2023-03-18T01:26:51;11.70;99.90
5154;DHT22;2595;53.584;10.084;2023-03-18T01:29:16;11.70;99.90
5154;DHT22;2595;53.584;10.084;2023-03-18T01:31:42;11.70;99.90
5154;DHT22;2595;53.584;10.084;2023-03-18T01:34:08;11.70;99.90
5154;DHT22;2595;53.584;10.084;2023-03-18T01:36:33;11.70;99.90
5154;DHT22;2595;53.584;10.084;2023-03-18T01:38:59;11.70;99.90
5154;DHT22;2595;53.584;10.084;2023-03-18T01:41:25;11.70;99.90
5154;DHT22;2595;53.584;10.084;2023-03-18T01:43:51;11.60;99.90
5154;DHT22;2595;53.584;10.084;2023-03-18T01:46:38;11.60;99.90
5154;DHT22;2595;53.584;10.084;2023-03-18T01:49:08;11.60;99.90
5154;DHT22;2595;53.584;10.084;2023-03-18T01:51:36;11.60;99.90
5154;DHT22;2595;53.584;10.084;2023-03-18T01:54:04;11.60;99.90
5154;DHT22;2595;53.584;10.084;2023-03-18T01:56:30;11.60;99.90
5154;DHT22;2595;53.584;10.084;2023-03-18T01:58:59;11.60;99.90
5154;DHT22;2595;53.584;10.084;2023-03-18T02:01:30;11.60;99.90
5154;DHT22;2595;53.584;10.084;2023-03-18T02:03:58;11.60;99.90
5154;DHT22;2595;53.584;10.084;2023-03-18T02:06:25;11.60;99.90
5154;DHT22;2595;53.584;10.084;2023-03-18T02:08:50;11.60;99.90
5154;DHT22;2595;53.584;10.084;2023-03-18T02:11:16;11.60;99.90
5154;DHT22;2595;53.584;10.084;2023-03-18T02:13:43;11.60;99.90
5154;DHT22;2595;53.584;10.084;2023-03-18T02:16:20;11.60;99.90
5154;DHT22;2595;53.584;10.084;2023-03-18T02:18:53;11.60;99.90
5154;DHT22;2595;53.584;10.084;2023-03-18T02:27:41;11.60;99.90
5154;DHT22;2595;53.584;10.084;2023-03-18T02:30:17;11.60;99.90
5154;DHT22;2595;53.584;10.084;2023-03-18T02:32:46;11.60;99.90
5154;DHT22;2595;53.584;10.084;2023-03-18T02:35:13;11.50;99.90
5154;DHT22;2595;53.584;10.084;2023-03-18T02:37:39;11.50;99.90
5154;DHT22;2595;53.584;10.084;2023-03-18T02:40:14;11.50;99.90
5154;DHT22;2595;53.584;10.084;2023-03-18T02:42:40;11.50;99.90
5154;DHT22;2595;53.584;10.084;2023-03-18T02:45:12;11.50;99.90
5154;DHT22;2595;53.584;10.084;2023-03-18T02:47:44;11.50;99.90
5154;DHT22;2595;53.584;10.084;2023-03-18T02:50:11;11.50;99.90
5154;DHT22;2595;53.584;10.084;2023-03-18T02:52:37;11.40;99.90
5154;DHT22;2595;53.584;10.084;2023-03-18T02:55:03;11.40;99.90
5154;DHT22;2595;53.584;10.084;2023-03-18T02:57:29;11.40;99.90
5154;DHT22;2595;53.584;10.084;2023-03-18T02:59:54;11.40;99.90
5154;DHT22;2595;53.584;10.084;2023-03-18T03:02:20;11.40;99.90
5154;DHT22;2595;53.584;10.084;2023-03-18T03:04:46;11.40;99.90
5154;DHT22;2595;53.584;10.084;2023-03-18T03:07:11;11.50;99.90
5154;DHT22;2595;53.584;10.084;2023-03-18T03:09:37;11.50;99.90
5154;DHT22;2595;53.584;10.084;2023-03-18T03:12:03;11.50;99.90
5154;DHT22;2595;53.584;10.084;2023-03-18T03:14:29;11.50;99.90
5154;DHT22;2595;53.584;10.084;2023-03-18T03:16:54;11.50;99.90
5154;DHT22;2595;53.584;10.084;2023-03-18T03:19:21;11.50;99.90
5154;DHT22;2595;53.584;10.084;2023-03-18T03:21:47;11.50;99.90
5154;DHT22;2595;53.584;10.084;2023-03-18T03:24:12;11.50;99.90
5154;DHT22;2595;53.584;10.084;2023-03-18T03:26:38;11.50;99.90
5154;DHT22;2595;53.584;10.084;2023-03-18T03:29:04;11.50;99.90
5154;DHT22;2595;53.584;10.084;2023-03-18T03:31:31;11.50;99.90
5154;DHT22;2595;53.584;10.084;2023-03-18T03:33:57;11.50;99.90
5154;DHT22;2595;53.584;10.084;2023-03-18T03:36:23;11.40;99.90
5154;DHT22;2595;53.584;10.084;2023-03-18T03:38:48;11.40;99.90
5154;DHT22;2595;53.584;10.084;2023-03-18T03:41:15;11.40;99.90
5154;DHT22;2595;53.584;10.084;2023-03-18T03:43:41;11.40;99.90
5154;DHT22;2595;53.584;10.084;2023-03-18T03:46:07;11.40;99.90
5154;DHT22;2595;53.584;10.084;2023-03-18T03:48:33;11.30;99.90
5154;DHT22;2595;53.584;10.084;2023-03-18T03:51:00;11.40;99.90
5154;DHT22;2595;53.584;10.084;2023-03-18T03:53:25;11.30;99.90
5154;DHT22;2595;53.584;10.084;2023-03-18T03:55:52;11.30;99.90
5154;DHT22;2595;53.584;10.084;2023-03-18T03:58:19;11.30;99.90
5154;DHT22;2595;53.584;10.084;2023-03-18T04:00:44;11.20;99.90
5154;DHT22;2595;53.584;10.084;2023-03-18T04:03:10;11.20;99.90
5154;DHT22;2595;53.584;10.084;2023-03-18T04:05:36;11.30;99.90
5154;DHT22;2595;53.584;10.084;2023-03-18T04:08:02;11.30;99.90
5154;DHT22;2595;53.584;10.084;2023-03-18T04:10:27;11.30;99.90
5154;DHT22;2595;53.584;10.084;2023-03-18T04:12:53;11.20;99.90
5154;DHT22;2595;53.584;10.084;2023-03-18T04:15:20;11.20;99.90
5154;DHT22;2595;53.584;10.084;2023-03-18T04:17:47;11.20;99.90
5154;DHT22;2595;53.584;10.084;2023-03-18T04:20:14;11.20;99.90
5154;DHT22;2595;53.584;10.084;2023-03-18T04:22:41;11.20;99.90
5154;DHT22;2595;53.584;10.084;2023-03-18T04:25:07;11.20;99.90
5154;DHT22;2595;53.584;10.084;2023-03-18T04:27:35;11.20;99.90
5154;DHT22;2595;53.584;10.084;2023-03-18T04:30:02;11.20;99.90
5154;DHT22;2595;53.584;10.084;2023-03-18T04:32:28;11.20;99.90
5154;DHT22;2595;53.584;10.084;2023-03-18T04:34:53;11.20;99.90
5154;DHT22;2595;53.584;10.084;2023-03-18T04:37:19;11.20;99.90
5154;DHT22;2595;53.584;10.084;2023-03-18T04:39:49;11.20;99.90
5154;DHT22;2595;53.584;10.084;2023-03-18T04:42:14;11.20;99.90
5154;DHT22;2595;53.584;10.084;2023-03-18T04:44:41;11.20;99.90
5154;DHT22;2595;53.584;10.084;2023-03-18T04:47:06;11.20;99.90
5154;DHT22;2595;53.584;10.084;2023-03-18T04:49:32;11.20;99.90
5154;DHT22;2595;53.584;10.084;2023-03-18T04:51:59;11.20;99.90
5154;DHT22;2595;53.584;10.084;2023-03-18T04:54:24;11.20;99.90
5154;DHT22;2595;53.584;10.084;2023-03-18T04:56:50;11.20;99.90
5154;DHT22;2595;53.584;10.084;2023-03-18T04:59:16;11.20;99.90
5154;DHT22;2595;53.584;10.084;2023-03-18T05:01:42;11.20;99.90
5154;DHT22;2595;53.584;10.084;2023-03-18T05:04:08;11.20;99.90
5154;DHT22;2595;53.584;10.084;2023-03-18T05:06:34;11.20;99.90
5154;DHT22;2595;53.584;10.084;2023-03-18T05:09:00;11.20;99.90
5154;DHT22;2595;53.584;10.084;2023-03-18T05:11:26;11.20;99.90
5154;DHT22;2595;53.584;10.084;2023-03-18T05:13:52;11.10;99.90
5154;DHT22;2595;53.584;10.084;2023-03-18T05:16:18;11.20;99.90
5154;DHT22;2595;53.584;10.084;2023-03-18T05:18:44;11.20;99.90
5154;DHT22;2595;53.584;10.084;2023-03-18T05:21:11;11.20;99.90
5154;DHT22;2595;53.584;10.084;2023-03-18T05:23:36;11.20;99.90
5154;DHT22;2595;53.584;10.084;2023-03-18T05:26:05;11.20;99.90
5154;DHT22;2595;53.584;10.084;2023-03-18T05:28:31;11.20;99.90
5154;DHT22;2595;53.584;10.084;2023-03-18T05:30:58;11.20;99.90
5154;DHT22;2595;53.584;10.084;2023-03-18T05:33:24;11.10;99.90
5154;DHT22;2595;53.584;10.084;2023-03-18T05:35:49;11.20;99.90
5154;DHT22;2595;53.584;10.084;2023-03-18T05:38:15;11.10;99.90
5154;DHT22;2595;53.584;10.084;2023-03-18T05:40:40;11.20;99.90
5154;DHT22;2595;53.584;10.084;2023-03-18T05:43:06;11.20;99.90
5154;DHT22;2595;53.584;10.084;2023-03-18T05:45:32;11.20;99.90
5154;DHT22;2595;53.584;10.084;2023-03-18T05:47:57;11.20;99.90
5154;DHT22;2595;53.584;10.084;2023-03-18T05:50:32;11.20;99.90
5154;DHT22;2595;53.584;10.084;2023-03-18T05:52:58;11.10;99.90
5154;DHT22;2595;53.584;10.084;2023-03-18T05:55:25;11.20;99.90
5154;DHT22;2595;53.584;10.084;2023-03-18T05:57:53;11.10;99.90
5154;DHT22;2595;53.584;10.084;2023-03-18T06:00:19;11.20;99.90
5154;DHT22;2595;53.584;10.084;2023-03-18T06:02:44;11.10;99.90
5154;DHT22;2595;53.584;10.084;2023-03-18T06:05:11;11.20;99.90
5154;DHT22;2595;53.584;10.084;2023-03-18T06:07:37;11.10;99.90
5154;DHT22;2595;53.584;10.084;2023-03-18T06:10:03;11.20;99.90
5154;DHT22;2595;53.584;10.084;2023-03-18T06:12:28;11.20;99.90
5154;DHT22;2595;53.584;10.084;2023-03-18T06:14:54;11.20;99.90
5154;DHT22;2595;53.584;10.084;2023-03-18T06:17:20;11.20;99.90
5154;DHT22;2595;53.584;10.084;2023-03-18T06:19:46;11.20;99.90
5154;DHT22;2595;53.584;10.084;2023-03-18T06:22:13;11.20;99.90
5154;DHT22;2595;53.584;10.084;2023-03-18T06:24:39;11.20;99.90
5154;DHT22;2595;53.584;10.084;2023-03-18T06:27:05;11.20;99.90
5154;DHT22;2595;53.584;10.084;2023-03-18T06:29:31;11.30;99.90
5154;DHT22;2595;53.584;10.084;2023-03-18T06:31:57;11.30;99.90
5154;DHT22;2595;53.584;10.084;2023-03-18T06:34:23;11.30;99.90
5154;DHT22;2595;53.584;10.084;2023-03-18T06:36:49;11.30;99.90
5154;DHT22;2595;53.584;10.084;2023-03-18T06:39:16;11.30;99.90
5154;DHT22;2595;53.584;10.084;2023-03-18T06:41:43;11.30;99.90
5154;DHT22;2595;53.584;10.084;2023-03-18T06:44:09;11.30;99.90
5154;DHT22;2595;53.584;10.084;2023-03-18T06:46:35;11.30;99.90
5154;DHT22;2595;53.584;10.084;2023-03-18T06:49:02;11.30;99.90
5154;DHT22;2595;53.584;10.084;2023-03-18T06:51:27;11.30;99.90
5154;DHT22;2595;53.584;10.084;2023-03-18T06:53:53;11.30;99.90
5154;DHT22;2595;53.584;10.084;2023-03-18T06:56:19;11.30;99.90
5154;DHT22;2595;53.584;10.084;2023-03-18T06:58:44;11.30;99.90
5154;DHT22;2595;53.584;10.084;2023-03-18T07:01:10;11.30;99.90
5154;DHT22;2595;53.584;10.084;2023-03-18T07:03:37;11.40;99.90
5154;DHT22;2595;53.584;10.084;2023-03-18T07:06:03;11.30;99.90
5154;DHT22;2595;53.584;10.084;2023-03-18T07:08:29;11.30;99.90
5154;DHT22;2595;53.584;10.084;2023-03-18T07:10:55;11.40;99.90
5154;DHT22;2595;53.584;10.084;2023-03-18T07:13:20;11.40;99.90
5154;DHT22;2595;53.584;10.084;2023-03-18T07:15:46;11.40;99.90
5154;DHT22;2595;53.584;10.084;2023-03-18T07:18:12;11.40;99.90
5154;DHT22;2595;53.584;10.084;2023-03-18T07:20:38;11.40;99.90
5154;DHT22;2595;53.584;10.084;2023-03-18T07:23:04;11.40;99.90
5154;DHT22;2595;53.584;10.084;2023-03-18T07:25:30;11.50;99.90
5154;DHT22;2595;53.584;10.084;2023-03-18T07:27:57;11.50;99.90
5154;DHT22;2595;53.584;10.084;2023-03-18T07:30:25;11.50;99.90
5154;DHT22;2595;53.584;10.084;2023-03-18T07:32:51;11.60;99.90
5154;DHT22;2595;53.584;10.084;2023-03-18T07:35:17;11.50;99.90
5154;DHT22;2595;53.584;10.084;2023-03-18T07:37:43;11.60;99.90
5154;DHT22;2595;53.584;10.084;2023-03-18T07:40:10;11.60;99.90
5154;DHT22;2595;53.584;10.084;2023-03-18T07:42:36;11.60;99.90
5154;DHT22;2595;53.584;10.084;2023-03-18T07:45:03;11.70;99.90
5154;DHT22;2595;53.584;10.084;2023-03-18T07:47:29;11.70;99.90
5154;DHT22;2595;53.584;10.084;2023-03-18T07:49:55;11.60;99.90
5154;DHT22;2595;53.584;10.084;2023-03-18T07:52:20;11.70;99.90
5154;DHT22;2595;53.584;10.084;2023-03-18T07:54:46;11.70;99.90
5154;DHT22;2595;53.584;10.084;2023-03-18T07:57:12;11.70;99.90
5154;DHT22;2595;53.584;10.084;2023-03-18T07:59:38;11.80;99.90
5154;DHT22;2595;53.584;10.084;2023-03-18T08:02:03;11.80;99.90
5154;DHT22;2595;53.584;10.084;2023-03-18T08:04:31;11.80;99.90
5154;DHT22;2595;53.584;10.084;2023-03-18T08:06:57;11.80;99.90
5154;DHT22;2595;53.584;10.084;2023-03-18T08:09:23;11.90;99.90
5154;DHT22;2595;53.584;10.084;2023-03-18T08:11:49;11.90;99.90
5154;DHT22;2595;53.584;10.084;2023-03-18T08:14:15;11.90;99.90
5154;DHT22;2595;53.584;10.084;2023-03-18T08:16:41;11.90;99.90
5154;DHT22;2595;53.584;10.084;2023-03-18T08:19:06;11.90;99.90
5154;DHT22;2595;53.584;10.084;2023-03-18T08:21:32;12.00;99.90
5154;DHT22;2595;53.584;10.084;2023-03-18T08:23:58;12.00;99.90
5154;DHT22;2595;53.584;10.084;2023-03-18T08:26:23;12.00;99.90
5154;DHT22;2595;53.584;10.084;2023-03-18T08:28:49;12.00;99.90
5154;DHT22;2595;53.584;10.084;2023-03-18T08:31:14;12.00;99.90
5154;DHT22;2595;53.584;10.084;2023-03-18T08:33:41;12.10;99.90
5154;DHT22;2595;53.584;10.084;2023-03-18T08:36:08;12.10;99.90
5154;DHT22;2595;53.584;10.084;2023-03-18T08:38:33;12.10;99.90
5154;DHT22;2595;53.584;10.084;2023-03-18T08:40:59;12.10;99.90
5154;DHT22;2595;53.584;10.084;2023-03-18T08:43:25;12.10;99.90
5154;DHT22;2595;53.584;10.084;2023-03-18T08:45:52;12.10;99.90
5154;DHT22;2595;53.584;10.084;2023-03-18T08:48:18;12.10;99.90
5154;DHT22;2595;53.584;10.084;2023-03-18T08:50:45;12.10;99.90
5154;DHT22;2595;53.584;10.084;2023-03-18T08:53:11;12.10;99.90
5154;DHT22;2595;53.584;10.084;2023-03-18T08:55:37;12.10;99.90
5154;DHT22;2595;53.584;10.084;2023-03-18T08:58:04;12.10;99.90
5154;DHT22;2595;53.584;10.084;2023-03-18T09:00:31;12.10;99.90
5154;DHT22;2595;53.584;10.084;2023-03-18T09:02:57;12.10;99.90
5154;DHT22;2595;53.584;10.084;2023-03-18T09:05:22;12.10;99.90
5154;DHT22;2595;53.584;10.084;2023-03-18T09:07:49;12.10;99.90
5154;DHT22;2595;53.584;10.084;2023-03-18T09:10:15;12.10;99.90
5154;DHT22;2595;53.584;10.084;2023-03-18T09:12:42;12.10;99.90
5154;DHT22;2595;53.584;10.084;2023-03-18T09:15:09;12.10;99.90
5154;DHT22;2595;53.584;10.084;2023-03-18T09:17:36;12.10;99.90
5154;DHT22;2595;53.584;10.084;2023-03-18T09:20:14;12.10;99.90
5154;DHT22;2595;53.584;10.084;2023-03-18T09:22:41;12.10;99.90
5154;DHT22;2595;53.584;10.084;2023-03-18T09:25:08;12.10;99.90
5154;DHT22;2595;53.584;10.084;2023-03-18T09:27:34;12.10;99.90
5154;DHT22;2595;53.584;10.084;2023-03-18T09:30:00;12.10;99.90
5154;DHT22;2595;53.584;10.084;2023-03-18T09:32:26;12.10;99.90
5154;DHT22;2595;53.584;10.084;2023-03-18T09:34:52;12.10;99.90
5154;DHT22;2595;53.584;10.084;2023-03-18T09:37:18;12.10;99.90
5154;DHT22;2595;53.584;10.084;2023-03-18T09:39:44;12.10;99.90
5154;DHT22;2595;53.584;10.084;2023-03-18T09:42:44;12.10;99.90
5154;DHT22;2595;53.584;10.084;2023-03-18T09:53:51;12.10;99.90
5154;DHT22;2595;53.584;10.084;2023-03-18T09:56:25;12.10;99.90
5154;DHT22;2595;53.584;10.084;2023-03-18T10:01:20;12.10;99.90
5154;DHT22;2595;53.584;10.084;2023-03-18T10:06:20;12.20;99.90
5154;DHT22;2595;53.584;10.084;2023-03-18T10:11:28;12.20;99.90
5154;DHT22;2595;53.584;10.084;2023-03-18T10:16:31;12.30;99.90
5154;DHT22;2595;53.584;10.084;2023-03-18T10:19:00;12.30;99.90
5154;DHT22;2595;53.584;10.084;2023-03-18T10:24:14;12.40;99.90
5154;DHT22;2595;53.584;10.084;2023-03-18T10:26:51;12.50;99.90
5154;DHT22;2595;53.584;10.084;2023-03-18T10:29:37;12.50;99.90
5154;DHT22;2595;53.584;10.084;2023-03-18T10:32:44;12.50;99.90
5154;DHT22;2595;53.584;10.084;2023-03-18T10:38:26;12.60;99.90
5154;DHT22;2595;53.584;10.084;2023-03-18T10:40:54;12.60;99.90
5154;DHT22;2595;53.584;10.084;2023-03-18T10:43:23;12.70;99.90
5154;DHT22;2595;53.584;10.084;2023-03-18T10:46:01;12.70;99.90
5154;DHT22;2595;53.584;10.084;2023-03-18T10:48:46;12.70;99.90
5154;DHT22;2595;53.584;10.084;2023-03-18T10:54:42;12.80;99.90
5154;DHT22;2595;53.584;10.084;2023-03-18T10:57:14;12.80;99.90
5154;DHT22;2595;53.584;10.084;2023-03-18T10:59:42;12.80;99.90
5154;DHT22;2595;53.584;10.084;2023-03-18T11:02:23;12.90;99.90
5154;DHT22;2595;53.584;10.084;2023-03-18T11:04:52;12.90;99.90
5154;DHT22;2595;53.584;10.084;2023-03-18T11:07:23;13.00;99.90
5154;DHT22;2595;53.584;10.084;2023-03-18T11:09:50;13.00;99.90
5154;DHT22;2595;53.584;10.084;2023-03-18T11:12:18;13.00;99.90
5154;DHT22;2595;53.584;10.084;2023-03-18T11:14:48;13.00;99.90
5154;DHT22;2595;53.584;10.084;2023-03-18T11:20:18;13.10;99.90
5154;DHT22;2595;53.584;10.084;2023-03-18T11:22:48;13.20;99.90
5154;DHT22;2595;53.584;10.084;2023-03-18T11:25:22;13.30;99.90
5154;DHT22;2595;53.584;10.084;2023-03-18T11:28:02;13.40;99.90
5154;DHT22;2595;53.584;10.084;2023-03-18T11:30:29;13.50;99.90
5154;DHT22;2595;53.584;10.084;2023-03-18T11:35:35;13.70;99.90
5154;DHT22;2595;53.584;10.084;2023-03-18T11:38:04;13.80;99.90
5154;DHT22;2595;53.584;10.084;2023-03-18T11:40:31;13.90;99.90
5154;DHT22;2595;53.584;10.084;2023-03-18T11:43:01;14.10;99.90
5154;DHT22;2595;53.584;10.084;2023-03-18T11:45:57;14.10;99.90
5154;DHT22;2595;53.584;10.084;2023-03-18T11:51:22;14.30;99.90
5154;DHT22;2595;53.584;10.084;2023-03-18T11:57:06;14.50;99.90
5154;DHT22;2595;53.584;10.084;2023-03-18T12:00:14;14.60;99.90
5154;DHT22;2595;53.584;10.084;2023-03-18T12:22:19;15.70;99.90
5154;DHT22;2595;53.584;10.084;2023-03-18T12:25:00;15.90;99.90
5154;DHT22;2595;53.584;10.084;2023-03-18T12:30:34;15.90;99.90
5154;DHT22;2595;53.584;10.084;2023-03-18T12:33:31;15.90;99.90
5154;DHT22;2595;53.584;10.084;2023-03-18T12:36:12;15.90;99.90
5154;DHT22;2595;53.584;10.084;2023-03-18T12:47:46;16.40;99.90
5154;DHT22;2595;53.584;10.084;2023-03-18T12:53:29;16.30;99.90
5154;DHT22;2595;53.584;10.084;2023-03-18T12:55:59;16.20;99.90
5154;DHT22;2595;53.584;10.084;2023-03-18T12:58:31;16.20;99.90
5154;DHT22;2595;53.584;10.084;2023-03-18T13:03:45;16.00;99.90
5154;DHT22;2595;53.584;10.084;2023-03-18T13:14:42;15.90;99.90
5154;DHT22;2595;53.584;10.084;2023-03-18T13:17:13;15.90;99.90
5154;DHT22;2595;53.584;10.084;2023-03-18T13:19:40;15.90;99.90
5154;DHT22;2595;53.584;10.084;2023-03-18T13:22:30;16.00;99.90
5154;DHT22;2595;53.584;10.084;2023-03-18T13:38:19;15.80;99.90
5154;DHT22;2595;53.584;10.084;2023-03-18T13:43:31;15.70;99.90
5154;DHT22;2595;53.584;10.084;2023-03-18T13:45:58;15.70;99.90
5154;DHT22;2595;53.584;10.084;2023-03-18T13:48:32;15.80;99.90
5154;DHT22;2595;53.584;10.084;2023-03-18T13:53:45;16.00;99.90
5154;DHT22;2595;53.584;10.084;2023-03-18T13:56:52;16.10;99.90
5154;DHT22;2595;53.584;10.084;2023-03-18T14:05:00;16.00;99.90
5154;DHT22;2595;53.584;10.084;2023-03-18T14:07:27;15.90;99.90
5154;DHT22;2595;53.584;10.084;2023-03-18T14:17:46;15.50;99.90
5154;DHT22;2595;53.584;10.084;2023-03-18T14:27:49;15.40;99.90
5154;DHT22;2595;53.584;10.084;2023-03-18T14:38:48;15.70;99.90
5154;DHT22;2595;53.584;10.084;2023-03-18T14:41:23;15.70;99.90
5154;DHT22;2595;53.584;10.084;2023-03-18T14:44:00;15.70;99.90
5154;DHT22;2595;53.584;10.084;2023-03-18T14:46:35;15.70;99.90
5154;DHT22;2595;53.584;10.084;2023-03-18T14:49:01;15.70;99.90
5154;DHT22;2595;53.584;10.084;2023-03-18T14:51:29;15.60;99.90
5154;DHT22;2595;53.584;10.084;2023-03-18T14:54:03;15.60;99.90
5154;DHT22;2595;53.584;10.084;2023-03-18T14:56:38;15.60;99.90
5154;DHT22;2595;53.584;10.084;2023-03-18T14:59:04;15.60;99.90
5154;DHT22;2595;53.584;10.084;2023-03-18T15:01:36;15.60;99.90
5154;DHT22;2595;53.584;10.084;2023-03-18T15:04:03;15.60;99.90
5154;DHT22;2595;53.584;10.084;2023-03-18T15:06:30;15.50;99.90
5154;DHT22;2595;53.584;10.084;2023-03-18T15:09:00;15.50;99.90
5154;DHT22;2595;53.584;10.084;2023-03-18T15:11:29;15.50;99.90
5154;DHT22;2595;53.584;10.084;2023-03-18T15:13:59;15.60;99.90
5154;DHT22;2595;53.584;10.084;2023-03-18T15:16:25;15.60;99.90
5154;DHT22;2595;53.584;10.084;2023-03-18T15:18:52;15.50;99.90
5154;DHT22;2595;53.584;10.084;2023-03-18T15:21:29;15.50;99.90
5154;DHT22;2595;53.584;10.084;2023-03-18T15:24:00;15.50;99.90
5154;DHT22;2595;53.584;10.084;2023-03-18T15:26:37;15.50;99.90
5154;DHT22;2595;53.584;10.084;2023-03-18T15:29:23;15.50;99.90
5154;DHT22;2595;53.584;10.084;2023-03-18T15:31:50;15.50;99.90
5154;DHT22;2595;53.584;10.084;2023-03-18T15:34:30;15.40;99.90
5154;DHT22;2595;53.584;10.084;2023-03-18T15:37:00;15.40;99.90
5154;DHT22;2595;53.584;10.084;2023-03-18T15:39:37;15.40;99.90
5154;DHT22;2595;53.584;10.084;2023-03-18T15:42:13;15.40;99.90
5154;DHT22;2595;53.584;10.084;2023-03-18T15:44:39;15.40;99.90
5154;DHT22;2595;53.584;10.084;2023-03-18T15:47:25;15.40;99.90
5154;DHT22;2595;53.584;10.084;2023-03-18T15:49:53;15.40;99.90
5154;DHT22;2595;53.584;10.084;2023-03-18T15:52:32;15.40;99.90
5154;DHT22;2595;53.584;10.084;2023-03-18T15:54:59;15.40;99.90
5154;DHT22;2595;53.584;10.084;2023-03-18T15:57:38;15.30;99.90
5154;DHT22;2595;53.584;10.084;2023-03-18T16:00:05;15.30;99.90
5154;DHT22;2595;53.584;10.084;2023-03-18T16:02:35;15.30;99.90
5154;DHT22;2595;53.584;10.084;2023-03-18T16:07:39;15.30;99.90
5154;DHT22;2595;53.584;10.084;2023-03-18T16:10:05;15.30;99.90
5154;DHT22;2595;53.584;10.084;2023-03-18T16:12:32;15.30;99.90
5154;DHT22;2595;53.584;10.084;2023-03-18T16:15:01;15.30;99.90
5154;DHT22;2595;53.584;10.084;2023-03-18T16:17:27;15.20;99.90
5154;DHT22;2595;53.584;10.084;2023-03-18T16:19:52;15.20;99.90
5154;DHT22;2595;53.584;10.084;2023-03-18T16:22:20;15.20;99.90
5154;DHT22;2595;53.584;10.084;2023-03-18T16:24:46;15.20;99.90
5154;DHT22;2595;53.584;10.084;2023-03-18T16:29:57;15.20;99.90
5154;DHT22;2595;53.584;10.084;2023-03-18T16:32:24;15.20;99.90
5154;DHT22;2595;53.584;10.084;2023-03-18T16:34:49;15.20;99.90
5154;DHT22;2595;53.584;10.084;2023-03-18T16:37:26;15.20;99.90
5154;DHT22;2595;53.584;10.084;2023-03-18T16:39:53;15.20;99.90
5154;DHT22;2595;53.584;10.084;2023-03-18T16:42:22;15.20;99.90
5154;DHT22;2595;53.584;10.084;2023-03-18T16:44:49;15.20;99.90
5154;DHT22;2595;53.584;10.084;2023-03-18T16:47:20;15.20;99.90
5154;DHT22;2595;53.584;10.084;2023-03-18T16:49:47;15.20;99.90
5154;DHT22;2595;53.584;10.084;2023-03-18T16:52:13;15.20;99.90
5154;DHT22;2595;53.584;10.084;2023-03-18T16:54:39;15.10;99.90
5154;DHT22;2595;53.584;10.084;2023-03-18T16:57:09;15.10;99.90
5154;DHT22;2595;53.584;10.084;2023-03-18T16:59:50;15.10;99.90
5154;DHT22;2595;53.584;10.084;2023-03-18T17:02:33;15.10;99.90
5154;DHT22;2595;53.584;10.084;2023-03-18T17:05:00;15.00;99.90
5154;DHT22;2595;53.584;10.084;2023-03-18T17:07:25;15.00;99.90
5154;DHT22;2595;53.584;10.084;2023-03-18T17:09:52;15.00;99.90
5154;DHT22;2595;53.584;10.084;2023-03-18T17:12:18;15.00;99.90
5154;DHT22;2595;53.584;10.084;2023-03-18T17:14:51;14.90;99.90
5154;DHT22;2595;53.584;10.084;2023-03-18T17:17:36;14.90;99.90
5154;DHT22;2595;53.584;10.084;2023-03-18T17:20:05;14.80;99.90
5154;DHT22;2595;53.584;10.084;2023-03-18T17:22:38;14.80;99.90
5154;DHT22;2595;53.584;10.084;2023-03-18T17:25:04;14.80;99.90
5154;DHT22;2595;53.584;10.084;2023-03-18T17:30:16;14.70;99.90
5154;DHT22;2595;53.584;10.084;2023-03-18T17:32:42;14.70;99.90
5154;DHT22;2595;53.584;10.084;2023-03-18T17:35:13;14.60;99.90
5154;DHT22;2595;53.584;10.084;2023-03-18T17:37:40;14.60;99.90
5154;DHT22;2595;53.584;10.084;2023-03-18T17:40:06;14.60;99.90
5154;DHT22;2595;53.584;10.084;2023-03-18T17:42:33;14.50;99.90
5154;DHT22;2595;53.584;10.084;2023-03-18T17:45:06;14.50;99.90
5154;DHT22;2595;53.584;10.084;2023-03-18T17:47:33;14.50;99.90
5154;DHT22;2595;53.584;10.084;2023-03-18T17:49:58;14.50;99.90
5154;DHT22;2595;53.584;10.084;2023-03-18T17:52:25;14.40;99.90
5154;DHT22;2595;53.584;10.084;2023-03-18T17:54:51;14.40;99.90
5154;DHT22;2595;53.584;10.084;2023-03-18T17:57:18;14.40;99.90
5154;DHT22;2595;53.584;10.084;2023-03-18T17:59:44;14.30;99.90
5154;DHT22;2595;53.584;10.084;2023-03-18T18:02:15;14.30;99.90
5154;DHT22;2595;53.584;10.084;2023-03-18T18:04:42;14.20;99.90
5154;DHT22;2595;53.584;10.084;2023-03-18T18:07:19;14.20;99.90
5154;DHT22;2595;53.584;10.084;2023-03-18T18:09:46;14.20;99.90
5154;DHT22;2595;53.584;10.084;2023-03-18T18:12:20;14.20;99.90
5154;DHT22;2595;53.584;10.084;2023-03-18T18:14:49;14.10;99.90
5154;DHT22;2595;53.584;10.084;2023-03-18T18:17:16;14.10;99.90
5154;DHT22;2595;53.584;10.084;2023-03-18T18:19:41;14.10;99.90
5154;DHT22;2595;53.584;10.084;2023-03-18T18:22:20;14.10;99.90